sensor_id;sensor_type;location;lat;lon;timestamp;P1;durP1;ratioP1;P2;durP2;ratioP2
34567;SDS011;20806;50.746;7.116;2022-10-18T00:02:17;0.43;;;0.40;;
34567;SDS011;20806;50.746;7.116;2022-10-18T00:04:44;1.40;;;0.50;;
34567;SDS011;20806;50.746;7.116;2022-10-18T00:07:10;0.68;;;0.45;;
34567;SDS011;20806;50.746;7.116;2022-10-18T00:09:36;0.50;;;0.50;;
34567;SDS011;20806;50.746;7.116;2022-10-18T00:12:02;0.70;;;0.40;;
34567;SDS011;20806;50.746;7.116;2022-10-18T00:14:28;0.40;;;0.40;;
34567;SDS011;20806;50.746;7.116;2022-10-18T00:16:54;0.40;;;0.40;;
34567;SDS011;20806;50.746;7.116;2022-10-18T00:19:20;0.30;;;0.30;;
34567;SDS011;20806;50.746;7.116;2022-10-18T00:21:48;0.40;;;0.40;;
34567;SDS011;20806;50.746;7.116;2022-10-18T00:24:15;0.60;;;0.40;;
34567;SDS011;20806;50.746;7.116;2022-10-18T00:26:41;0.60;;;0.52;;
34567;SDS011;20806;50.746;7.116;2022-10-18T00:29:09;0.70;;;0.40;;
34567;SDS011;20806;50.746;7.116;2022-10-18T00:31:37;0.75;;;0.38;;
34567;SDS011;20806;50.746;7.116;2022-10-18T00:34:04;0.80;;;0.40;;
34567;SDS011;20806;50.746;7.116;2022-10-18T00:36:31;0.40;;;0.40;;
34567;SDS011;20806;50.746;7.116;2022-10-18T00:38:58;0.60;;;0.60;;
34567;SDS011;20806;50.746;7.116;2022-10-18T00:41:25;0.90;;;0.50;;
34567;SDS011;20806;50.746;7.116;2022-10-18T00:43:52;0.50;;;0.50;;
34567;SDS011;20806;50.746;7.116;2022-10-18T00:46:19;0.50;;;0.50;;
34567;SDS011;20806;50.746;7.116;2022-10-18T00:48:45;0.55;;;0.55;;
34567;SDS011;20806;50.746;7.116;2022-10-18T00:51:11;0.50;;;0.50;;
34567;SDS011;20806;50.746;7.116;2022-10-18T00:53:37;0.60;;;0.60;;
34567;SDS011;20806;50.746;7.116;2022-10-18T00:56:04;2.40;;;0.60;;
34567;SDS011;20806;50.746;7.116;2022-10-18T00:58:30;0.80;;;0.50;;
34567;SDS011;20806;50.746;7.116;2022-10-18T01:00:56;0.60;;;0.40;;
34567;SDS011;20806;50.746;7.116;2022-10-18T01:03:22;0.50;;;0.50;;
34567;SDS011;20806;50.746;7.116;2022-10-18T01:05:48;0.98;;;0.68;;
34567;SDS011;20806;50.746;7.116;2022-10-18T01:10:59;0.60;;;0.57;;
34567;SDS011;20806;50.746;7.116;2022-10-18T01:13:53;0.50;;;0.47;;
34567;SDS011;20806;50.746;7.116;2022-10-18T01:16:24;0.60;;;0.47;;
34567;SDS011;20806;50.746;7.116;2022-10-18T01:21:44;0.57;;;0.40;;
34567;SDS011;20806;50.746;7.116;2022-10-18T01:26:44;0.65;;;0.50;;
34567;SDS011;20806;50.746;7.116;2022-10-18T01:31:57;0.97;;;0.50;;
34567;SDS011;20806;50.746;7.116;2022-10-18T01:34:25;0.50;;;0.50;;
34567;SDS011;20806;50.746;7.116;2022-10-18T01:36:54;0.50;;;0.50;;
34567;SDS011;20806;50.746;7.116;2022-10-18T01:39:25;0.80;;;0.60;;
34567;SDS011;20806;50.746;7.116;2022-10-18T01:41:52;0.63;;;0.50;;
34567;SDS011;20806;50.746;7.116;2022-10-18T01:44:22;0.65;;;0.55;;
34567;SDS011;20806;50.746;7.116;2022-10-18T01:46:50;0.50;;;0.50;;
34567;SDS011;20806;50.746;7.116;2022-10-18T01:49:17;0.68;;;0.50;;
34567;SDS011;20806;50.746;7.116;2022-10-18T01:51:43;0.40;;;0.40;;
34567;SDS011;20806;50.746;7.116;2022-10-18T01:54:09;0.50;;;0.50;;
34567;SDS011;20806;50.746;7.116;2022-10-18T02:09:48;0.60;;;0.60;;
34567;SDS011;20806;50.746;7.116;2022-10-18T02:12:16;0.40;;;0.40;;
34567;SDS011;20806;50.746;7.116;2022-10-18T02:14:43;0.68;;;0.60;;
34567;SDS011;20806;50.746;7.116;2022-10-18T02:17:10;0.40;;;0.40;;
34567;SDS011;20806;50.746;7.116;2022-10-18T02:19:41;0.60;;;0.60;;
34567;SDS011;20806;50.746;7.116;2022-10-18T02:22:08;0.50;;;0.50;;
34567;SDS011;20806;50.746;7.116;2022-10-18T02:24:37;0.60;;;0.45;;
34567;SDS011;20806;50.746;7.116;2022-10-18T02:27:03;0.65;;;0.65;;
34567;SDS011;20806;50.746;7.116;2022-10-18T02:29:29;0.73;;;0.73;;
34567;SDS011;20806;50.746;7.116;2022-10-18T02:34:29;0.98;;;0.88;;
34567;SDS011;20806;50.746;7.116;2022-10-18T02:36:57;0.70;;;0.70;;
34567;SDS011;20806;50.746;7.116;2022-10-18T02:39:25;0.70;;;0.70;;
34567;SDS011;20806;50.746;7.116;2022-10-18T02:41:52;0.80;;;0.80;;
34567;SDS011;20806;50.746;7.116;2022-10-18T02:44:19;0.70;;;0.68;;
34567;SDS011;20806;50.746;7.116;2022-10-18T02:46:45;0.70;;;0.70;;
34567;SDS011;20806;50.746;7.116;2022-10-18T02:49:12;0.60;;;0.60;;
34567;SDS011;20806;50.746;7.116;2022-10-18T02:51:38;0.60;;;0.60;;
34567;SDS011;20806;50.746;7.116;2022-10-18T02:54:04;0.70;;;0.60;;
34567;SDS011;20806;50.746;7.116;2022-10-18T02:56:30;0.85;;;0.70;;
34567;SDS011;20806;50.746;7.116;2022-10-18T02:58:56;0.60;;;0.60;;
34567;SDS011;20806;50.746;7.116;2022-10-18T03:01:22;1.00;;;0.52;;
34567;SDS011;20806;50.746;7.116;2022-10-18T03:03:48;0.87;;;0.60;;
34567;SDS011;20806;50.746;7.116;2022-10-18T03:06:14;0.70;;;0.60;;
34567;SDS011;20806;50.746;7.116;2022-10-18T03:08:40;0.80;;;0.80;;
34567;SDS011;20806;50.746;7.116;2022-10-18T03:11:06;0.60;;;0.60;;
34567;SDS011;20806;50.746;7.116;2022-10-18T03:13:32;0.90;;;0.50;;
34567;SDS011;20806;50.746;7.116;2022-10-18T03:15:58;0.60;;;0.60;;
34567;SDS011;20806;50.746;7.116;2022-10-18T03:18:25;0.50;;;0.50;;
34567;SDS011;20806;50.746;7.116;2022-10-18T03:20:51;1.00;;;0.55;;
34567;SDS011;20806;50.746;7.116;2022-10-18T03:23:17;0.60;;;0.50;;
34567;SDS011;20806;50.746;7.116;2022-10-18T03:25:43;0.52;;;0.52;;
34567;SDS011;20806;50.746;7.116;2022-10-18T03:28:09;0.50;;;0.50;;
34567;SDS011;20806;50.746;7.116;2022-10-18T03:30:35;0.60;;;0.60;;
34567;SDS011;20806;50.746;7.116;2022-10-18T03:33:03;0.50;;;0.50;;
34567;SDS011;20806;50.746;7.116;2022-10-18T03:35:29;0.50;;;0.50;;
34567;SDS011;20806;50.746;7.116;2022-10-18T03:37:55;0.50;;;0.50;;
34567;SDS011;20806;50.746;7.116;2022-10-18T03:40:21;0.40;;;0.40;;
34567;SDS011;20806;50.746;7.116;2022-10-18T03:42:47;0.65;;;0.57;;
34567;SDS011;20806;50.746;7.116;2022-10-18T03:45:13;0.68;;;0.68;;
34567;SDS011;20806;50.746;7.116;2022-10-18T03:47:39;0.60;;;0.60;;
34567;SDS011;20806;50.746;7.116;2022-10-18T03:50:05;0.50;;;0.50;;
34567;SDS011;20806;50.746;7.116;2022-10-18T03:52:31;0.40;;;0.40;;
34567;SDS011;20806;50.746;7.116;2022-10-18T03:54:57;0.50;;;0.50;;
34567;SDS011;20806;50.746;7.116;2022-10-18T03:57:23;0.40;;;0.40;;
34567;SDS011;20806;50.746;7.116;2022-10-18T03:59:49;0.40;;;0.40;;
34567;SDS011;20806;50.746;7.116;2022-10-18T04:02:15;0.50;;;0.50;;
34567;SDS011;20806;50.746;7.116;2022-10-18T04:04:41;0.45;;;0.45;;
34567;SDS011;20806;50.746;7.116;2022-10-18T04:07:07;0.65;;;0.65;;
34567;SDS011;20806;50.746;7.116;2022-10-18T04:09:33;0.50;;;0.50;;
34567;SDS011;20806;50.746;7.116;2022-10-18T04:11:59;0.55;;;0.55;;
34567;SDS011;20806;50.746;7.116;2022-10-18T04:14:25;1.10;;;0.50;;
34567;SDS011;20806;50.746;7.116;2022-10-18T04:16:51;0.50;;;0.50;;
34567;SDS011;20806;50.746;7.116;2022-10-18T04:19:18;0.40;;;0.40;;
34567;SDS011;20806;50.746;7.116;2022-10-18T04:21:44;0.50;;;0.50;;
34567;SDS011;20806;50.746;7.116;2022-10-18T04:24:10;0.50;;;0.50;;
34567;SDS011;20806;50.746;7.116;2022-10-18T04:26:36;0.30;;;0.30;;
34567;SDS011;20806;50.746;7.116;2022-10-18T04:29:02;0.40;;;0.40;;
34567;SDS011;20806;50.746;7.116;2022-10-18T04:31:28;0.30;;;0.30;;
34567;SDS011;20806;50.746;7.116;2022-10-18T04:33:54;0.30;;;0.30;;
34567;SDS011;20806;50.746;7.116;2022-10-18T04:36:20;0.40;;;0.40;;
34567;SDS011;20806;50.746;7.116;2022-10-18T04:38:46;0.40;;;0.40;;
34567;SDS011;20806;50.746;7.116;2022-10-18T04:41:12;0.35;;;0.30;;
34567;SDS011;20806;50.746;7.116;2022-10-18T04:43:38;0.40;;;0.40;;
34567;SDS011;20806;50.746;7.116;2022-10-18T04:46:04;0.35;;;0.35;;
34567;SDS011;20806;50.746;7.116;2022-10-18T04:48:30;0.60;;;0.60;;
34567;SDS011;20806;50.746;7.116;2022-10-18T04:50:56;0.50;;;0.50;;
34567;SDS011;20806;50.746;7.116;2022-10-18T04:53:22;0.40;;;0.40;;
34567;SDS011;20806;50.746;7.116;2022-10-18T04:55:48;0.50;;;0.50;;
34567;SDS011;20806;50.746;7.116;2022-10-18T04:58:15;0.40;;;0.40;;
34567;SDS011;20806;50.746;7.116;2022-10-18T05:00:41;0.40;;;0.40;;
34567;SDS011;20806;50.746;7.116;2022-10-18T05:03:08;0.30;;;0.30;;
34567;SDS011;20806;50.746;7.116;2022-10-18T05:05:34;0.30;;;0.30;;
34567;SDS011;20806;50.746;7.116;2022-10-18T05:08:00;0.40;;;0.40;;
34567;SDS011;20806;50.746;7.116;2022-10-18T05:10:26;0.30;;;0.30;;
34567;SDS011;20806;50.746;7.116;2022-10-18T05:12:52;0.47;;;0.47;;
34567;SDS011;20806;50.746;7.116;2022-10-18T05:15:18;0.50;;;0.50;;
34567;SDS011;20806;50.746;7.116;2022-10-18T05:17:44;0.50;;;0.45;;
34567;SDS011;20806;50.746;7.116;2022-10-18T05:20:10;0.40;;;0.40;;
34567;SDS011;20806;50.746;7.116;2022-10-18T05:22:36;0.45;;;0.45;;
34567;SDS011;20806;50.746;7.116;2022-10-18T05:25:02;0.30;;;0.30;;
34567;SDS011;20806;50.746;7.116;2022-10-18T05:27:28;0.45;;;0.45;;
34567;SDS011;20806;50.746;7.116;2022-10-18T05:29:54;0.30;;;0.30;;
34567;SDS011;20806;50.746;7.116;2022-10-18T05:32:20;0.40;;;0.40;;
34567;SDS011;20806;50.746;7.116;2022-10-18T05:34:46;0.40;;;0.40;;
34567;SDS011;20806;50.746;7.116;2022-10-18T05:37:12;0.50;;;0.50;;
34567;SDS011;20806;50.746;7.116;2022-10-18T05:39:38;0.40;;;0.40;;
34567;SDS011;20806;50.746;7.116;2022-10-18T05:42:05;0.40;;;0.40;;
34567;SDS011;20806;50.746;7.116;2022-10-18T05:44:31;0.40;;;0.40;;
34567;SDS011;20806;50.746;7.116;2022-10-18T05:46:57;0.40;;;0.40;;
34567;SDS011;20806;50.746;7.116;2022-10-18T05:49:23;0.60;;;0.38;;
34567;SDS011;20806;50.746;7.116;2022-10-18T05:51:49;0.40;;;0.40;;
34567;SDS011;20806;50.746;7.116;2022-10-18T05:54:15;0.45;;;0.40;;
34567;SDS011;20806;50.746;7.116;2022-10-18T05:56:41;0.47;;;0.47;;
34567;SDS011;20806;50.746;7.116;2022-10-18T05:59:08;0.50;;;0.50;;
34567;SDS011;20806;50.746;7.116;2022-10-18T06:01:36;0.45;;;0.45;;
34567;SDS011;20806;50.746;7.116;2022-10-18T06:04:02;0.40;;;0.40;;
34567;SDS011;20806;50.746;7.116;2022-10-18T06:06:29;0.40;;;0.40;;
34567;SDS011;20806;50.746;7.116;2022-10-18T06:08:55;0.40;;;0.40;;
34567;SDS011;20806;50.746;7.116;2022-10-18T06:11:21;0.30;;;0.30;;
34567;SDS011;20806;50.746;7.116;2022-10-18T06:13:48;0.40;;;0.40;;
34567;SDS011;20806;50.746;7.116;2022-10-18T06:16:16;0.40;;;0.40;;
34567;SDS011;20806;50.746;7.116;2022-10-18T06:18:42;0.40;;;0.40;;
34567;SDS011;20806;50.746;7.116;2022-10-18T06:21:11;0.32;;;0.32;;
34567;SDS011;20806;50.746;7.116;2022-10-18T06:23:37;0.30;;;0.30;;
34567;SDS011;20806;50.746;7.116;2022-10-18T06:26:05;0.30;;;0.30;;
34567;SDS011;20806;50.746;7.116;2022-10-18T06:28:32;0.40;;;0.40;;
34567;SDS011;20806;50.746;7.116;2022-10-18T06:30:58;0.30;;;0.30;;
34567;SDS011;20806;50.746;7.116;2022-10-18T06:33:24;0.30;;;0.30;;
34567;SDS011;20806;50.746;7.116;2022-10-18T06:35:54;0.30;;;0.30;;
34567;SDS011;20806;50.746;7.116;2022-10-18T06:38:20;0.30;;;0.30;;
34567;SDS011;20806;50.746;7.116;2022-10-18T06:40:47;0.25;;;0.25;;
34567;SDS011;20806;50.746;7.116;2022-10-18T06:43:13;0.50;;;0.40;;
34567;SDS011;20806;50.746;7.116;2022-10-18T06:45:39;0.40;;;0.40;;
34567;SDS011;20806;50.746;7.116;2022-10-18T06:48:05;0.50;;;0.35;;
34567;SDS011;20806;50.746;7.116;2022-10-18T06:50:31;0.40;;;0.40;;
34567;SDS011;20806;50.746;7.116;2022-10-18T06:52:57;0.32;;;0.32;;
34567;SDS011;20806;50.746;7.116;2022-10-18T06:55:23;0.38;;;0.38;;
34567;SDS011;20806;50.746;7.116;2022-10-18T06:57:49;0.30;;;0.30;;
34567;SDS011;20806;50.746;7.116;2022-10-18T07:00:15;0.30;;;0.30;;
34567;SDS011;20806;50.746;7.116;2022-10-18T07:02:41;0.43;;;0.38;;
34567;SDS011;20806;50.746;7.116;2022-10-18T07:05:07;0.40;;;0.40;;
34567;SDS011;20806;50.746;7.116;2022-10-18T07:07:33;0.40;;;0.40;;
34567;SDS011;20806;50.746;7.116;2022-10-18T07:09:59;0.30;;;0.30;;
34567;SDS011;20806;50.746;7.116;2022-10-18T07:12:25;0.30;;;0.30;;
34567;SDS011;20806;50.746;7.116;2022-10-18T07:14:51;0.30;;;0.30;;
34567;SDS011;20806;50.746;7.116;2022-10-18T07:17:19;0.60;;;0.30;;
34567;SDS011;20806;50.746;7.116;2022-10-18T07:19:45;0.40;;;0.40;;
34567;SDS011;20806;50.746;7.116;2022-10-18T07:22:11;0.70;;;0.40;;
34567;SDS011;20806;50.746;7.116;2022-10-18T07:24:37;0.45;;;0.40;;
34567;SDS011;20806;50.746;7.116;2022-10-18T07:27:03;0.50;;;0.50;;
34567;SDS011;20806;50.746;7.116;2022-10-18T07:29:29;1.00;;;0.60;;
34567;SDS011;20806;50.746;7.116;2022-10-18T07:31:55;0.63;;;0.63;;
34567;SDS011;20806;50.746;7.116;2022-10-18T07:34:22;0.60;;;0.60;;
34567;SDS011;20806;50.746;7.116;2022-10-18T07:36:48;1.20;;;0.50;;
34567;SDS011;20806;50.746;7.116;2022-10-18T07:39:14;0.50;;;0.40;;
34567;SDS011;20806;50.746;7.116;2022-10-18T07:41:40;0.70;;;0.40;;
34567;SDS011;20806;50.746;7.116;2022-10-18T07:44:06;0.50;;;0.50;;
34567;SDS011;20806;50.746;7.116;2022-10-18T07:46:33;0.45;;;0.45;;
34567;SDS011;20806;50.746;7.116;2022-10-18T07:48:59;0.50;;;0.50;;
34567;SDS011;20806;50.746;7.116;2022-10-18T07:51:25;1.10;;;0.50;;
34567;SDS011;20806;50.746;7.116;2022-10-18T07:53:52;0.60;;;0.50;;
34567;SDS011;20806;50.746;7.116;2022-10-18T07:56:18;0.50;;;0.50;;
34567;SDS011;20806;50.746;7.116;2022-10-18T07:58:45;0.50;;;0.50;;
34567;SDS011;20806;50.746;7.116;2022-10-18T08:01:12;0.98;;;0.60;;
34567;SDS011;20806;50.746;7.116;2022-10-18T08:03:38;0.80;;;0.80;;
34567;SDS011;20806;50.746;7.116;2022-10-18T08:06:05;0.70;;;0.70;;
34567;SDS011;20806;50.746;7.116;2022-10-18T08:08:33;1.17;;;0.98;;
34567;SDS011;20806;50.746;7.116;2022-10-18T08:11:02;1.13;;;1.02;;
34567;SDS011;20806;50.746;7.116;2022-10-18T08:13:29;1.23;;;1.15;;
34567;SDS011;20806;50.746;7.116;2022-10-18T08:15:58;1.33;;;1.23;;
34567;SDS011;20806;50.746;7.116;2022-10-18T08:18:24;1.08;;;1.08;;
34567;SDS011;20806;50.746;7.116;2022-10-18T08:20:50;1.50;;;1.40;;
34567;SDS011;20806;50.746;7.116;2022-10-18T08:23:16;1.30;;;1.20;;
34567;SDS011;20806;50.746;7.116;2022-10-18T08:25:42;1.40;;;1.30;;
34567;SDS011;20806;50.746;7.116;2022-10-18T08:28:08;1.20;;;1.20;;
34567;SDS011;20806;50.746;7.116;2022-10-18T08:30:34;1.40;;;1.10;;
34567;SDS011;20806;50.746;7.116;2022-10-18T08:33:01;1.30;;;1.17;;
34567;SDS011;20806;50.746;7.116;2022-10-18T08:35:27;1.05;;;1.00;;
34567;SDS011;20806;50.746;7.116;2022-10-18T08:37:53;1.00;;;1.00;;
34567;SDS011;20806;50.746;7.116;2022-10-18T08:40:19;1.10;;;0.77;;
34567;SDS011;20806;50.746;7.116;2022-10-18T08:42:49;0.70;;;0.70;;
34567;SDS011;20806;50.746;7.116;2022-10-18T08:45:18;1.13;;;0.60;;
34567;SDS011;20806;50.746;7.116;2022-10-18T08:47:45;0.68;;;0.60;;
34567;SDS011;20806;50.746;7.116;2022-10-18T08:50:46;0.40;;;0.40;;
34567;SDS011;20806;50.746;7.116;2022-10-18T08:55:54;0.47;;;0.47;;
34567;SDS011;20806;50.746;7.116;2022-10-18T08:58:23;0.40;;;0.40;;
34567;SDS011;20806;50.746;7.116;2022-10-18T09:03:47;0.40;;;0.40;;
34567;SDS011;20806;50.746;7.116;2022-10-18T09:06:17;0.35;;;0.35;;
34567;SDS011;20806;50.746;7.116;2022-10-18T09:11:32;0.43;;;0.40;;
34567;SDS011;20806;50.746;7.116;2022-10-18T09:22:18;0.28;;;0.28;;
34567;SDS011;20806;50.746;7.116;2022-10-18T09:24:49;0.30;;;0.30;;
34567;SDS011;20806;50.746;7.116;2022-10-18T09:27:18;0.30;;;0.30;;
34567;SDS011;20806;50.746;7.116;2022-10-18T09:29:52;0.30;;;0.30;;
34567;SDS011;20806;50.746;7.116;2022-10-18T09:37:36;0.47;;;0.30;;
34567;SDS011;20806;50.746;7.116;2022-10-18T09:40:22;0.28;;;0.28;;
34567;SDS011;20806;50.746;7.116;2022-10-18T09:47:53;0.60;;;0.40;;
34567;SDS011;20806;50.746;7.116;2022-10-18T09:50:26;0.40;;;0.40;;
34567;SDS011;20806;50.746;7.116;2022-10-18T09:55:25;0.70;;;0.40;;
34567;SDS011;20806;50.746;7.116;2022-10-18T09:57:55;0.40;;;0.40;;
34567;SDS011;20806;50.746;7.116;2022-10-18T10:00:27;0.80;;;0.80;;
34567;SDS011;20806;50.746;7.116;2022-10-18T10:02:54;0.70;;;0.70;;
34567;SDS011;20806;50.746;7.116;2022-10-18T10:05:20;0.60;;;0.60;;
34567;SDS011;20806;50.746;7.116;2022-10-18T10:07:46;0.70;;;0.70;;
34567;SDS011;20806;50.746;7.116;2022-10-18T10:10:19;0.70;;;0.70;;
34567;SDS011;20806;50.746;7.116;2022-10-18T10:12:47;0.63;;;0.63;;
34567;SDS011;20806;50.746;7.116;2022-10-18T10:15:23;0.70;;;0.70;;
34567;SDS011;20806;50.746;7.116;2022-10-18T10:17:55;0.60;;;0.60;;
34567;SDS011;20806;50.746;7.116;2022-10-18T10:20:31;0.90;;;0.90;;
34567;SDS011;20806;50.746;7.116;2022-10-18T10:23:32;0.93;;;0.93;;
34567;SDS011;20806;50.746;7.116;2022-10-18T10:25:51;1.80;;;1.70;;
34567;SDS011;20806;50.746;7.116;2022-10-18T10:28:27;1.90;;;1.70;;
34567;SDS011;20806;50.746;7.116;2022-10-18T10:31:04;2.10;;;1.70;;
34567;SDS011;20806;50.746;7.116;2022-10-18T10:33:40;2.40;;;1.80;;
34567;SDS011;20806;50.746;7.116;2022-10-18T10:36:18;2.10;;;1.90;;
34567;SDS011;20806;50.746;7.116;2022-10-18T10:38:44;1.90;;;1.80;;
34567;SDS011;20806;50.746;7.116;2022-10-18T10:41:18;2.50;;;2.17;;
34567;SDS011;20806;50.746;7.116;2022-10-18T10:43:45;2.20;;;2.00;;
34567;SDS011;20806;50.746;7.116;2022-10-18T10:46:12;1.80;;;1.70;;
34567;SDS011;20806;50.746;7.116;2022-10-18T10:48:40;1.92;;;1.80;;
34567;SDS011;20806;50.746;7.116;2022-10-18T10:51:10;1.67;;;1.58;;
34567;SDS011;20806;50.746;7.116;2022-10-18T10:53:47;1.90;;;1.80;;
34567;SDS011;20806;50.746;7.116;2022-10-18T10:58:43;2.25;;;1.88;;
34567;SDS011;20806;50.746;7.116;2022-10-18T11:01:16;2.40;;;2.20;;
34567;SDS011;20806;50.746;7.116;2022-10-18T11:03:46;3.17;;;2.70;;
34567;SDS011;20806;50.746;7.116;2022-10-18T11:09:35;2.58;;;2.38;;
34567;SDS011;20806;50.746;7.116;2022-10-18T11:12:11;2.50;;;2.30;;
34567;SDS011;20806;50.746;7.116;2022-10-18T11:14:40;2.63;;;2.42;;
34567;SDS011;20806;50.746;7.116;2022-10-18T11:17:13;2.40;;;2.20;;
34567;SDS011;20806;50.746;7.116;2022-10-18T11:19:54;2.95;;;2.65;;
34567;SDS011;20806;50.746;7.116;2022-10-18T11:22:25;2.95;;;2.45;;
34567;SDS011;20806;50.746;7.116;2022-10-18T11:24:52;2.60;;;2.40;;
34567;SDS011;20806;50.746;7.116;2022-10-18T11:27:24;2.92;;;2.63;;
34567;SDS011;20806;50.746;7.116;2022-10-18T11:29:54;2.60;;;2.40;;
34567;SDS011;20806;50.746;7.116;2022-10-18T11:32:33;2.53;;;2.33;;
34567;SDS011;20806;50.746;7.116;2022-10-18T11:43:05;2.40;;;2.20;;
34567;SDS011;20806;50.746;7.116;2022-10-18T11:45:54;2.88;;;2.67;;
34567;SDS011;20806;50.746;7.116;2022-10-18T11:56:29;2.60;;;2.40;;
34567;SDS011;20806;50.746;7.116;2022-10-18T12:01:52;3.90;;;3.50;;
34567;SDS011;20806;50.746;7.116;2022-10-18T12:04:22;4.63;;;4.22;;
34567;SDS011;20806;50.746;7.116;2022-10-18T12:06:50;4.90;;;4.40;;
34567;SDS011;20806;50.746;7.116;2022-10-18T12:09:24;4.90;;;4.40;;
34567;SDS011;20806;50.746;7.116;2022-10-18T12:11:52;5.65;;;5.05;;
34567;SDS011;20806;50.746;7.116;2022-10-18T12:14:29;5.30;;;4.80;;
34567;SDS011;20806;50.746;7.116;2022-10-18T12:16:59;5.13;;;4.63;;
34567;SDS011;20806;50.746;7.116;2022-10-18T12:19:27;5.37;;;4.87;;
34567;SDS011;20806;50.746;7.116;2022-10-18T12:21:55;5.60;;;4.65;;
34567;SDS011;20806;50.746;7.116;2022-10-18T12:24:24;4.93;;;4.43;;
34567;SDS011;20806;50.746;7.116;2022-10-18T12:26:50;5.30;;;4.78;;
34567;SDS011;20806;50.746;7.116;2022-10-18T12:32:12;4.63;;;4.22;;
34567;SDS011;20806;50.746;7.116;2022-10-18T12:39:51;5.40;;;4.90;;
34567;SDS011;20806;50.746;7.116;2022-10-18T12:42:22;5.15;;;4.75;;
34567;SDS011;20806;50.746;7.116;2022-10-18T12:44:58;5.35;;;4.85;;
34567;SDS011;20806;50.746;7.116;2022-10-18T12:47:25;5.30;;;4.80;;
34567;SDS011;20806;50.746;7.116;2022-10-18T12:49:55;4.63;;;4.22;;
34567;SDS011;20806;50.746;7.116;2022-10-18T12:52:23;5.35;;;4.85;;
34567;SDS011;20806;50.746;7.116;2022-10-18T13:11:36;4.22;;;3.78;;
34567;SDS011;20806;50.746;7.116;2022-10-18T13:16:20;3.83;;;3.53;;
34567;SDS011;20806;50.746;7.116;2022-10-18T13:18:54;4.13;;;3.80;;
34567;SDS011;20806;50.746;7.116;2022-10-18T13:21:22;3.80;;;3.50;;
34567;SDS011;20806;50.746;7.116;2022-10-18T13:23:56;3.80;;;3.45;;
34567;SDS011;20806;50.746;7.116;2022-10-18T13:29:04;3.30;;;3.00;;
34567;SDS011;20806;50.746;7.116;2022-10-18T13:31:41;3.47;;;3.17;;
34567;SDS011;20806;50.746;7.116;2022-10-18T13:34:42;3.55;;;3.25;;
34567;SDS011;20806;50.746;7.116;2022-10-18T13:39:41;3.15;;;2.92;;
34567;SDS011;20806;50.746;7.116;2022-10-18T13:44:37;3.03;;;2.83;;
34567;SDS011;20806;50.746;7.116;2022-10-18T13:52:02;3.07;;;2.77;;
34567;SDS011;20806;50.746;7.116;2022-10-18T13:57:09;3.58;;;3.28;;
34567;SDS011;20806;50.746;7.116;2022-10-18T14:02:33;2.72;;;2.53;;
34567;SDS011;20806;50.746;7.116;2022-10-18T14:07:50;3.08;;;2.83;;
34567;SDS011;20806;50.746;7.116;2022-10-18T14:10:22;2.90;;;2.70;;
34567;SDS011;20806;50.746;7.116;2022-10-18T14:12:50;4.13;;;3.70;;
34567;SDS011;20806;50.746;7.116;2022-10-18T14:15:24;3.80;;;3.50;;
34567;SDS011;20806;50.746;7.116;2022-10-18T14:20:56;4.93;;;4.43;;
34567;SDS011;20806;50.746;7.116;2022-10-18T14:23:28;4.40;;;4.00;;
34567;SDS011;20806;50.746;7.116;2022-10-18T14:26:15;4.40;;;4.00;;
34567;SDS011;20806;50.746;7.116;2022-10-18T14:28:42;4.00;;;3.70;;
34567;SDS011;20806;50.746;7.116;2022-10-18T14:31:13;4.05;;;3.75;;
34567;SDS011;20806;50.746;7.116;2022-10-18T14:36:15;6.73;;;6.03;;
34567;SDS011;20806;50.746;7.116;2022-10-18T14:38:50;7.20;;;6.40;;
34567;SDS011;20806;50.746;7.116;2022-10-18T14:41:21;8.18;;;7.38;;
34567;SDS011;20806;50.746;7.116;2022-10-18T14:43:48;7.82;;;7.05;;
34567;SDS011;20806;50.746;7.116;2022-10-18T14:46:23;7.88;;;7.07;;
34567;SDS011;20806;50.746;7.116;2022-10-18T14:48:53;8.00;;;7.20;;
34567;SDS011;20806;50.746;7.116;2022-10-18T14:51:19;7.90;;;7.10;;
34567;SDS011;20806;50.746;7.116;2022-10-18T14:53:46;8.93;;;7.90;;
34567;SDS011;20806;50.746;7.116;2022-10-18T14:56:18;9.75;;;8.38;;
34567;SDS011;20806;50.746;7.116;2022-10-18T14:58:45;9.40;;;8.05;;
34567;SDS011;20806;50.746;7.116;2022-10-18T15:01:18;10.15;;;8.60;;
34567;SDS011;20806;50.746;7.116;2022-10-18T15:03:44;10.52;;;8.73;;
34567;SDS011;20806;50.746;7.116;2022-10-18T15:06:14;11.02;;;9.13;;
34567;SDS011;20806;50.746;7.116;2022-10-18T15:08:40;9.57;;;8.52;;
34567;SDS011;20806;50.746;7.116;2022-10-18T15:11:07;8.98;;;8.07;;
34567;SDS011;20806;50.746;7.116;2022-10-18T15:13:34;8.35;;;7.55;;
34567;SDS011;20806;50.746;7.116;2022-10-18T15:16:01;7.80;;;7.00;;
34567;SDS011;20806;50.746;7.116;2022-10-18T15:18:28;7.78;;;6.97;;
34567;SDS011;20806;50.746;7.116;2022-10-18T15:23:38;6.50;;;5.90;;
34567;SDS011;20806;50.746;7.116;2022-10-18T15:26:08;6.22;;;5.55;;
34567;SDS011;20806;50.746;7.116;2022-10-18T15:28:40;5.63;;;5.00;;
34567;SDS011;20806;50.746;7.116;2022-10-18T15:31:24;5.38;;;4.88;;
34567;SDS011;20806;50.746;7.116;2022-10-18T15:33:51;5.18;;;4.68;;
34567;SDS011;20806;50.746;7.116;2022-10-18T15:36:38;4.90;;;4.50;;
34567;SDS011;20806;50.746;7.116;2022-10-18T15:39:11;4.35;;;3.95;;
34567;SDS011;20806;50.746;7.116;2022-10-18T15:41:40;4.20;;;3.90;;
34567;SDS011;20806;50.746;7.116;2022-10-18T15:46:43;4.30;;;4.00;;
34567;SDS011;20806;50.746;7.116;2022-10-18T15:51:48;3.97;;;3.67;;
34567;SDS011;20806;50.746;7.116;2022-10-18T15:54:18;3.58;;;3.30;;
34567;SDS011;20806;50.746;7.116;2022-10-18T15:56:53;3.60;;;3.30;;
34567;SDS011;20806;50.746;7.116;2022-10-18T15:59:21;3.58;;;3.28;;
34567;SDS011;20806;50.746;7.116;2022-10-18T16:01:48;3.22;;;2.95;;
34567;SDS011;20806;50.746;7.116;2022-10-18T16:04:32;2.90;;;2.70;;
34567;SDS011;20806;50.746;7.116;2022-10-18T16:06:58;2.78;;;2.67;;
34567;SDS011;20806;50.746;7.116;2022-10-18T16:09:25;2.67;;;2.50;;
34567;SDS011;20806;50.746;7.116;2022-10-18T16:11:52;2.95;;;2.75;;
34567;SDS011;20806;50.746;7.116;2022-10-18T16:14:19;2.55;;;2.45;;
34567;SDS011;20806;50.746;7.116;2022-10-18T16:16:45;2.53;;;2.38;;
34567;SDS011;20806;50.746;7.116;2022-10-18T16:19:15;2.85;;;2.65;;
34567;SDS011;20806;50.746;7.116;2022-10-18T16:21:46;2.85;;;2.65;;
34567;SDS011;20806;50.746;7.116;2022-10-18T16:24:13;2.58;;;2.38;;
34567;SDS011;20806;50.746;7.116;2022-10-18T16:26:39;2.33;;;2.23;;
34567;SDS011;20806;50.746;7.116;2022-10-18T16:29:05;2.67;;;2.47;;
34567;SDS011;20806;50.746;7.116;2022-10-18T16:31:34;2.72;;;2.53;;
34567;SDS011;20806;50.746;7.116;2022-10-18T16:34:00;2.72;;;2.38;;
34567;SDS011;20806;50.746;7.116;2022-10-18T16:36:28;2.20;;;2.10;;
34567;SDS011;20806;50.746;7.116;2022-10-18T16:38:54;2.60;;;2.40;;
34567;SDS011;20806;50.746;7.116;2022-10-18T16:41:21;2.50;;;2.30;;
34567;SDS011;20806;50.746;7.116;2022-10-18T16:43:48;2.40;;;2.20;;
34567;SDS011;20806;50.746;7.116;2022-10-18T16:46:15;2.00;;;1.90;;
34567;SDS011;20806;50.746;7.116;2022-10-18T16:48:42;2.47;;;2.28;;
34567;SDS011;20806;50.746;7.116;2022-10-18T16:51:08;1.73;;;1.63;;
34567;SDS011;20806;50.746;7.116;2022-10-18T16:53:35;2.05;;;1.85;;
34567;SDS011;20806;50.746;7.116;2022-10-18T16:56:02;1.83;;;1.63;;
34567;SDS011;20806;50.746;7.116;2022-10-18T16:58:28;1.70;;;1.60;;
34567;SDS011;20806;50.746;7.116;2022-10-18T17:00:55;1.50;;;1.40;;
34567;SDS011;20806;50.746;7.116;2022-10-18T17:03:21;1.35;;;1.25;;
34567;SDS011;20806;50.746;7.116;2022-10-18T17:05:47;1.50;;;1.40;;
34567;SDS011;20806;50.746;7.116;2022-10-18T17:08:18;1.50;;;1.40;;
34567;SDS011;20806;50.746;7.116;2022-10-18T17:10:44;1.30;;;1.20;;
34567;SDS011;20806;50.746;7.116;2022-10-18T17:13:10;1.15;;;1.10;;
34567;SDS011;20806;50.746;7.116;2022-10-18T17:15:37;1.20;;;1.20;;
34567;SDS011;20806;50.746;7.116;2022-10-18T17:18:05;1.40;;;1.30;;